createdAt,value
2023-05-19T00:01:17.976Z,1.92
2023-05-19T00:03:59.098Z,3.65
2023-05-19T00:06:27.653Z,2.58
2023-05-19T00:09:09.080Z,2.58
2023-05-19T00:11:38.082Z,2.20
2023-05-19T00:14:07.608Z,4.78
2023-05-19T00:16:35.281Z,2.00
2023-05-19T00:19:04.636Z,3.70
2023-05-19T00:21:32.086Z,3.25
2023-05-19T00:23:59.244Z,3.65
2023-05-19T00:26:27.672Z,3.17
2023-05-19T00:28:59.891Z,3.63
2023-05-19T00:31:27.191Z,3.88
2023-05-19T00:33:55.188Z,3.95
2023-05-19T00:36:22.065Z,2.63
2023-05-19T00:38:51.077Z,2.35
2023-05-19T00:41:18.118Z,2.58
2023-05-19T00:43:45.022Z,3.63
2023-05-19T00:46:11.980Z,2.72
2023-05-19T00:48:38.920Z,2.78
2023-05-19T00:51:06.679Z,3.40
2023-05-19T00:53:34.823Z,3.75
2023-05-19T00:56:03.047Z,3.88
2023-05-19T00:58:32.639Z,4.38
2023-05-19T01:01:03.612Z,4.13
2023-05-19T01:03:35.138Z,3.92
2023-05-19T01:06:05.784Z,2.63
2023-05-19T01:08:34.073Z,3.95
2023-05-19T01:11:01.157Z,4.75
2023-05-19T01:13:29.117Z,3.30
2023-05-19T01:16:09.075Z,3.35
2023-05-19T01:18:41.856Z,3.75
2023-05-19T01:21:46.600Z,3.55
2023-05-19T01:24:23.272Z,3.78
2023-05-19T01:27:11.833Z,3.67
2023-05-19T01:29:49.056Z,3.90
2023-05-19T01:32:20.832Z,3.85
2023-05-19T01:34:50.995Z,3.53
2023-05-19T01:37:18.927Z,3.78
2023-05-19T01:39:47.898Z,3.45
2023-05-19T01:42:16.747Z,3.53
2023-05-19T01:44:44.343Z,4.40
2023-05-19T01:47:11.503Z,3.05
2023-05-19T01:49:38.348Z,3.08
2023-05-19T01:52:05.580Z,2.75
2023-05-19T01:54:32.471Z,4.43
2023-05-19T01:57:29.839Z,2.88
2023-05-19T02:00:12.674Z,4.88
2023-05-19T02:03:09.167Z,2.72
2023-05-19T02:05:43.397Z,3.00
2023-05-19T02:08:42.820Z,3.53
2023-05-19T02:11:31.431Z,4.25
2023-05-19T02:14:03.712Z,3.65
2023-05-19T02:18:59.539Z,3.47
2023-05-19T02:21:26.680Z,5.18
2023-05-19T02:23:55.190Z,4.40
2023-05-19T02:26:22.791Z,4.15
2023-05-19T02:28:49.639Z,3.72
2023-05-19T02:31:18.055Z,4.03
2023-05-19T02:33:44.903Z,4.35
2023-05-19T02:36:11.821Z,4.63
2023-05-19T02:38:38.720Z,4.65
2023-05-19T02:41:05.673Z,4.25
2023-05-19T02:43:32.569Z,5.57
2023-05-19T02:45:59.487Z,3.67
2023-05-19T02:48:26.954Z,4.65
2023-05-19T02:50:53.889Z,4.00
2023-05-19T02:53:20.806Z,3.60
2023-05-19T02:55:47.643Z,4.40
2023-05-19T02:58:14.558Z,4.18
2023-05-19T03:00:41.460Z,3.85
2023-05-19T03:03:10.472Z,4.15
2023-05-19T03:05:37.435Z,4.05
2023-05-19T03:08:04.519Z,3.92
2023-05-19T03:10:31.642Z,3.60
2023-05-19T03:12:58.692Z,4.65
2023-05-19T03:15:25.603Z,3.05
2023-05-19T03:17:52.639Z,3.22
2023-05-19T03:20:19.760Z,3.33
2023-05-19T03:22:46.608Z,3.88
2023-05-19T03:25:13.539Z,4.15
2023-05-19T03:27:41.114Z,4.95
2023-05-19T03:30:09.072Z,3.60
2023-05-19T03:32:45.912Z,4.97
2023-05-19T03:35:12.917Z,3.70
2023-05-19T03:37:39.837Z,4.47
2023-05-19T03:40:07.652Z,4.30
2023-05-19T03:45:04.352Z,5.00
2023-05-19T03:47:31.901Z,4.32
2023-05-19T03:50:17.672Z,3.35
2023-05-19T03:53:00.835Z,3.10
2023-05-19T03:55:30.193Z,3.78
2023-05-19T03:57:57.297Z,3.10
2023-05-19T04:00:24.705Z,4.03
2023-05-19T04:02:52.068Z,5.30
2023-05-19T04:05:19.072Z,4.72
2023-05-19T04:07:46.847Z,4.47
2023-05-19T04:10:14.363Z,3.60
2023-05-19T04:12:41.279Z,5.22
2023-05-19T04:15:11.469Z,3.78
2023-05-19T04:17:38.628Z,3.13
2023-05-19T04:20:06.494Z,4.82
2023-05-19T04:22:33.635Z,5.28
2023-05-19T04:25:00.618Z,4.03
2023-05-19T04:27:29.981Z,3.97
2023-05-19T04:29:58.164Z,3.45
2023-05-19T04:32:25.695Z,3.70
2023-05-19T04:34:53.677Z,3.47
2023-05-19T04:37:26.050Z,4.47
2023-05-19T04:39:54.237Z,3.20
2023-05-19T04:42:26.211Z,3.95
2023-05-19T04:44:54.345Z,3.30
2023-05-19T04:47:28.192Z,3.60
2023-05-19T04:49:55.775Z,3.88
2023-05-19T04:52:22.903Z,3.13
2023-05-19T04:54:50.825Z,2.50
2023-05-19T04:57:17.764Z,5.35
2023-05-19T04:59:46.333Z,3.00
2023-05-19T05:04:42.715Z,2.10
2023-05-19T05:09:38.532Z,2.15
2023-05-19T05:12:07.862Z,3.15
2023-05-19T05:14:36.250Z,2.63
2023-05-19T05:17:03.880Z,2.03
2023-05-19T05:19:32.336Z,2.38
2023-05-19T05:21:59.821Z,2.22
2023-05-19T05:24:27.517Z,2.47
2023-05-19T05:26:59.291Z,2.63
2023-05-19T05:29:26.447Z,1.83
2023-05-19T05:31:53.597Z,1.90
2023-05-19T05:34:20.681Z,3.17
2023-05-19T05:36:48.631Z,2.40
2023-05-19T05:39:15.581Z,2.53
2023-05-19T05:41:44.421Z,2.10
2023-05-19T05:44:12.483Z,2.38
2023-05-19T05:46:41.922Z,1.02
2023-05-19T05:49:09.797Z,1.10
2023-05-19T05:51:37.153Z,1.55
2023-05-19T05:54:06.876Z,2.13
2023-05-19T05:56:38.484Z,2.15
2023-05-19T05:59:08.096Z,1.50
2023-05-19T06:01:36.324Z,1.63
2023-05-19T06:04:05.225Z,1.30
2023-05-19T06:06:32.883Z,1.48
2023-05-19T06:09:01.838Z,1.20
2023-05-19T06:11:29.449Z,2.10
2023-05-19T06:13:58.411Z,1.40
2023-05-19T06:16:51.464Z,2.22
2023-05-19T06:19:20.001Z,0.88
2023-05-19T06:21:47.007Z,1.08
2023-05-19T06:24:15.015Z,0.90
2023-05-19T06:26:42.057Z,1.45
2023-05-19T06:29:08.988Z,1.00
2023-05-19T06:31:36.032Z,0.82
2023-05-19T06:34:12.387Z,1.10
2023-05-19T06:36:41.476Z,1.02
2023-05-19T06:39:09.395Z,0.93
2023-05-19T06:41:36.535Z,1.58
2023-05-19T06:44:04.560Z,1.17
2023-05-19T06:46:33.573Z,2.00
2023-05-19T06:49:00.830Z,1.63
2023-05-19T06:53:59.931Z,1.75
2023-05-19T06:56:27.280Z,1.88
2023-05-19T06:58:54.197Z,1.83
2023-05-19T07:01:27.842Z,1.52
2023-05-19T07:06:22.899Z,2.00
2023-05-19T07:08:51.124Z,1.20
2023-05-19T07:11:18.705Z,2.08
2023-05-19T07:13:45.665Z,1.45
2023-05-19T07:16:16.178Z,1.40
2023-05-19T07:18:44.697Z,1.13
2023-05-19T07:21:11.699Z,1.38
2023-05-19T07:23:38.971Z,1.60
2023-05-19T07:26:05.948Z,1.55
2023-05-19T07:28:34.330Z,1.38
2023-05-19T07:31:01.474Z,1.52
2023-05-19T07:33:28.326Z,1.20
2023-05-19T07:35:55.357Z,1.58
2023-05-19T07:38:22.318Z,1.20
2023-05-19T07:40:49.163Z,1.13
2023-05-19T07:43:16.030Z,1.45
2023-05-19T07:45:42.930Z,1.50
2023-05-19T07:48:10.011Z,3.05
2023-05-19T07:50:37.132Z,2.22
2023-05-19T07:53:04.008Z,2.22
2023-05-19T07:55:31.067Z,3.72
2023-05-19T07:57:57.977Z,3.22
2023-05-19T08:00:25.012Z,3.13
2023-05-19T08:02:53.158Z,4.00
2023-05-19T08:05:20.131Z,3.40
2023-05-19T08:07:47.128Z,2.90
2023-05-19T08:10:14.074Z,3.03
2023-05-19T08:12:40.956Z,3.00
2023-05-19T08:15:08.458Z,2.90
2023-05-19T08:17:35.275Z,2.80
2023-05-19T08:20:05.133Z,2.85
2023-05-19T08:22:32.164Z,3.63
2023-05-19T08:24:59.007Z,3.83
2023-05-19T08:27:25.846Z,3.47
2023-05-19T08:29:52.790Z,2.72
2023-05-19T08:32:19.651Z,2.60
2023-05-19T08:34:46.723Z,3.30
2023-05-19T08:37:13.633Z,4.32
2023-05-19T08:39:40.660Z,4.00
2023-05-19T08:42:09.804Z,3.42
2023-05-19T08:44:40.164Z,4.93
2023-05-19T08:49:47.110Z,3.42
2023-05-19T08:52:47.886Z,3.75
2023-05-19T08:55:26.024Z,5.25
2023-05-19T08:57:53.173Z,2.63
2023-05-19T09:00:20.945Z,3.67
2023-05-19T09:03:00.761Z,3.03
2023-05-19T09:05:33.451Z,2.78
2023-05-19T09:08:02.838Z,3.38
2023-05-19T09:10:29.835Z,3.80
2023-05-19T09:12:56.718Z,2.95
2023-05-19T09:15:27.389Z,3.17
2023-05-19T09:18:11.687Z,4.00
2023-05-19T09:20:40.738Z,3.83
2023-05-19T09:23:08.342Z,2.53
2023-05-19T09:25:35.489Z,3.50
2023-05-19T09:28:02.771Z,4.28
2023-05-19T09:30:29.847Z,2.40
2023-05-19T09:32:56.954Z,2.92
2023-05-19T09:35:24.232Z,3.33
2023-05-19T09:37:51.143Z,4.05
2023-05-19T09:40:18.035Z,3.47
2023-05-19T09:42:45.009Z,4.05
2023-05-19T09:45:12.051Z,2.35
2023-05-19T09:47:41.138Z,3.10
2023-05-19T09:50:10.819Z,3.67
2023-05-19T09:52:43.713Z,3.97
2023-05-19T09:55:12.801Z,3.60
2023-05-19T09:57:40.751Z,3.65
2023-05-19T10:00:14.391Z,2.65
2023-05-19T10:02:43.841Z,4.57
2023-05-19T10:05:21.135Z,3.23
2023-05-19T10:07:51.515Z,2.20
2023-05-19T10:10:21.863Z,3.53
2023-05-19T10:12:49.881Z,3.03
2023-05-19T10:15:20.018Z,2.95
2023-05-19T10:17:50.145Z,3.10
2023-05-19T10:20:17.819Z,4.32
2023-05-19T10:22:46.247Z,3.75
2023-05-19T10:25:18.585Z,2.88
2023-05-19T10:27:52.092Z,3.30
2023-05-19T10:30:28.423Z,3.50
2023-05-19T10:32:57.403Z,5.13
2023-05-19T10:36:02.673Z,2.53
2023-05-19T10:38:51.130Z,3.33
2023-05-19T10:41:29.752Z,4.03
2023-05-19T10:44:04.448Z,3.50
2023-05-19T10:46:31.798Z,3.45
2023-05-19T10:48:59.614Z,3.40
2023-05-19T10:51:32.250Z,2.60
2023-05-19T10:54:02.914Z,3.45
2023-05-19T10:56:33.780Z,2.67
2023-05-19T10:59:01.546Z,2.67
2023-05-19T11:01:33.755Z,2.72
2023-05-19T11:04:12.580Z,1.83
2023-05-19T11:06:41.145Z,2.33
2023-05-19T11:09:17.938Z,2.78
2023-05-19T11:11:53.098Z,3.17
2023-05-19T11:14:27.926Z,2.80
2023-05-19T11:16:58.907Z,3.17
2023-05-19T11:19:32.696Z,2.47
2023-05-19T11:22:12.977Z,2.22
2023-05-19T11:24:50.574Z,3.22
2023-05-19T11:27:28.357Z,3.10
2023-05-19T11:29:57.291Z,3.83
2023-05-19T11:32:29.493Z,2.30
2023-05-19T11:34:57.983Z,2.38
2023-05-19T11:37:24.975Z,2.47
2023-05-19T11:39:53.075Z,3.33
2023-05-19T11:42:20.425Z,2.60
2023-05-19T11:44:47.398Z,2.28
2023-05-19T11:47:15.861Z,3.13
2023-05-19T11:49:48.396Z,2.53
2023-05-19T11:52:15.901Z,2.28
2023-05-19T11:54:42.962Z,3.08
2023-05-19T11:57:14.074Z,3.35
2023-05-19T11:59:45.384Z,2.08
2023-05-19T12:02:20.255Z,2.25
2023-05-19T12:04:49.443Z,4.05
2023-05-19T12:07:18.400Z,2.00
2023-05-19T12:09:49.197Z,2.33
2023-05-19T12:12:20.828Z,2.70
2023-05-19T12:14:48.872Z,2.70
2023-05-19T12:17:23.939Z,1.88
2023-05-19T12:19:51.386Z,1.85
2023-05-19T12:22:19.164Z,1.58
2023-05-19T12:24:47.272Z,2.38
2023-05-19T12:27:20.015Z,3.05
2023-05-19T12:29:54.247Z,1.92
2023-05-19T12:32:25.664Z,1.95
2023-05-19T12:34:53.812Z,3.05
2023-05-19T12:37:21.164Z,2.03
2023-05-19T12:39:51.217Z,1.90
2023-05-19T12:42:18.262Z,3.25
2023-05-19T12:44:47.103Z,1.92
2023-05-19T12:47:15.729Z,1.75
2023-05-19T12:50:18.253Z,2.53
2023-05-19T12:52:47.619Z,2.05
2023-05-19T12:55:16.439Z,2.40
2023-05-19T12:57:59.597Z,2.85
2023-05-19T13:00:31.225Z,4.20
2023-05-19T13:02:58.755Z,2.47
2023-05-19T13:05:27.265Z,2.30
2023-05-19T13:07:59.097Z,4.03
2023-05-19T13:10:27.663Z,3.45
2023-05-19T13:12:55.863Z,2.40
2023-05-19T13:15:24.927Z,2.33
2023-05-19T13:17:53.046Z,2.63
2023-05-19T13:20:20.773Z,2.88
2023-05-19T13:22:51.439Z,2.05
2023-05-19T13:25:18.379Z,2.45
2023-05-19T13:27:48.015Z,3.28
2023-05-19T13:30:18.708Z,3.55
2023-05-19T13:32:46.055Z,2.35
2023-05-19T13:35:14.550Z,2.80
2023-05-19T13:37:44.405Z,2.72
2023-05-19T13:40:12.051Z,2.83
2023-05-19T13:42:39.107Z,2.55
2023-05-19T13:45:06.415Z,2.78
2023-05-19T13:47:33.330Z,2.40
2023-05-19T13:50:00.268Z,2.78
2023-05-19T13:52:29.086Z,3.15
2023-05-19T13:54:57.671Z,2.50
2023-05-19T13:57:25.543Z,2.22
2023-05-19T14:00:01.597Z,2.28
2023-05-19T14:02:39.956Z,3.50
2023-05-19T14:05:08.068Z,2.78
2023-05-19T14:07:35.612Z,2.88
2023-05-19T14:10:05.521Z,2.60
2023-05-19T14:12:41.392Z,3.05
2023-05-19T14:15:14.574Z,1.92
2023-05-19T14:17:41.752Z,3.85
2023-05-19T14:20:09.611Z,3.92
2023-05-19T14:22:36.536Z,3.65
2023-05-19T14:25:03.738Z,5.00
2023-05-19T14:27:30.624Z,2.17
2023-05-19T14:29:57.617Z,2.55
2023-05-19T14:32:24.567Z,3.22
2023-05-19T14:34:52.917Z,1.85
2023-05-19T14:37:20.468Z,2.10
2023-05-19T14:39:47.299Z,2.38
2023-05-19T14:42:14.140Z,2.22
2023-05-19T14:44:41.049Z,1.95
2023-05-19T14:47:08.434Z,2.42
2023-05-19T14:49:35.464Z,2.08
2023-05-19T14:52:02.403Z,3.00
2023-05-19T14:54:29.262Z,3.22
2023-05-19T14:56:56.265Z,2.25
2023-05-19T14:59:23.231Z,1.80
2023-05-19T15:01:50.176Z,2.10
2023-05-19T15:04:18.380Z,2.65
2023-05-19T15:06:48.187Z,2.35
2023-05-19T15:09:19.303Z,1.30
2023-05-19T15:11:46.137Z,2.08
2023-05-19T15:14:12.988Z,2.45
2023-05-19T15:16:39.933Z,1.10
2023-05-19T15:19:06.842Z,2.30
2023-05-19T15:21:33.725Z,1.77
2023-05-19T15:24:00.652Z,2.33
2023-05-19T15:26:29.768Z,2.10
2023-05-19T15:28:56.779Z,2.17
2023-05-19T15:31:23.657Z,1.92
2023-05-19T15:33:50.558Z,2.17
2023-05-19T15:36:17.481Z,1.80
2023-05-19T15:38:44.441Z,1.88
2023-05-19T15:41:11.287Z,2.38
2023-05-19T15:43:38.728Z,1.95
2023-05-19T15:46:05.630Z,1.77
2023-05-19T15:48:32.808Z,1.38
2023-05-19T15:50:59.926Z,2.22
2023-05-19T15:53:26.944Z,1.60
2023-05-19T15:55:53.912Z,1.92
2023-05-19T15:58:20.866Z,2.22
2023-05-19T16:00:47.743Z,2.03
2023-05-19T16:03:14.939Z,1.38
2023-05-19T16:05:41.794Z,2.42
2023-05-19T16:08:08.966Z,2.00
2023-05-19T16:10:36.078Z,1.67
2023-05-19T16:13:02.938Z,2.50
2023-05-19T16:15:29.818Z,2.17
2023-05-19T16:17:57.326Z,1.67
2023-05-19T16:20:27.874Z,2.70
2023-05-19T16:22:55.518Z,2.15
2023-05-19T16:25:23.133Z,1.80
2023-05-19T16:27:50.654Z,1.27
2023-05-19T16:30:17.638Z,2.10
2023-05-19T16:32:44.740Z,2.38
2023-05-19T16:35:11.733Z,2.42
2023-05-19T16:37:38.698Z,2.40
2023-05-19T16:40:06.243Z,1.27
2023-05-19T16:42:33.124Z,1.95
2023-05-19T16:45:00.022Z,2.10
2023-05-19T16:47:26.858Z,1.90
2023-05-19T16:49:53.759Z,1.90
2023-05-19T16:52:20.948Z,1.60
2023-05-19T16:54:48.071Z,1.77
2023-05-19T16:57:14.961Z,1.92
2023-05-19T16:59:42.175Z,2.42
2023-05-19T17:02:09.251Z,1.48
2023-05-19T17:04:36.190Z,2.20
2023-05-19T17:07:03.119Z,2.63
2023-05-19T17:09:29.948Z,1.67
2023-05-19T17:11:56.774Z,3.17
2023-05-19T17:14:23.674Z,2.20
2023-05-19T17:16:52.531Z,2.22
2023-05-19T17:19:19.514Z,2.63
2023-05-19T17:21:46.508Z,1.88
2023-05-19T17:24:13.378Z,3.72
2023-05-19T17:26:40.236Z,2.55
2023-05-19T17:29:07.145Z,2.92
2023-05-19T17:31:34.207Z,2.20
2023-05-19T17:34:01.171Z,2.45
2023-05-19T17:36:28.250Z,2.03
2023-05-19T17:38:55.198Z,2.72
2023-05-19T17:41:22.769Z,2.92
2023-05-19T17:43:49.696Z,2.08
2023-05-19T17:46:16.625Z,1.25
2023-05-19T17:48:43.905Z,3.03
2023-05-19T17:51:11.431Z,2.05
2023-05-19T17:53:38.636Z,2.90
2023-05-19T17:56:08.866Z,2.45
2023-05-19T17:58:36.345Z,1.70
2023-05-19T18:01:03.316Z,2.22
2023-05-19T18:03:31.792Z,2.22
2023-05-19T18:05:59.205Z,1.90
2023-05-19T18:08:26.794Z,2.17
2023-05-19T18:10:57.041Z,2.28
2023-05-19T18:13:23.961Z,2.15
2023-05-19T18:15:52.654Z,2.35
2023-05-19T18:18:19.636Z,1.90
2023-05-19T18:20:46.567Z,1.88
2023-05-19T18:23:13.476Z,2.42
2023-05-19T18:25:40.308Z,1.63
2023-05-19T18:28:07.893Z,2.60
2023-05-19T18:30:35.395Z,1.83
2023-05-19T18:33:03.923Z,2.75
2023-05-19T18:35:31.065Z,1.25
2023-05-19T18:37:57.953Z,3.22
2023-05-19T18:40:24.831Z,1.48
2023-05-19T18:42:51.763Z,1.30
2023-05-19T18:45:18.815Z,0.93
2023-05-19T18:47:46.004Z,1.20
2023-05-19T18:50:13.150Z,0.90
2023-05-19T18:52:40.386Z,1.23
2023-05-19T18:55:07.804Z,1.40
2023-05-19T18:57:34.681Z,1.27
2023-05-19T19:00:01.695Z,0.88
2023-05-19T19:02:28.558Z,1.15
2023-05-19T19:04:55.549Z,1.27
2023-05-19T19:07:25.729Z,0.70
2023-05-19T19:09:52.645Z,0.88
2023-05-19T19:12:20.428Z,0.60
2023-05-19T19:14:47.581Z,1.10
2023-05-19T19:17:14.569Z,0.50
2023-05-19T19:19:41.661Z,0.70
2023-05-19T19:22:08.689Z,1.02
2023-05-19T19:24:35.869Z,0.68
2023-05-19T19:27:02.983Z,1.05
2023-05-19T19:29:30.003Z,1.17
2023-05-19T19:31:57.023Z,0.70
2023-05-19T19:34:23.943Z,1.17
2023-05-19T19:36:51.090Z,0.73
2023-05-19T19:39:18.137Z,0.80
2023-05-19T19:41:44.994Z,1.20
2023-05-19T19:44:11.913Z,1.92
2023-05-19T19:46:38.789Z,1.10
2023-05-19T19:49:05.710Z,2.65
2023-05-19T19:51:32.713Z,1.80
2023-05-19T19:53:59.653Z,1.85
2023-05-19T19:56:27.635Z,2.30
2023-05-19T19:58:56.911Z,1.45
2023-05-19T20:01:27.592Z,0.75
2023-05-19T20:03:55.987Z,1.38
2023-05-19T20:06:23.473Z,1.10
2023-05-19T20:08:50.496Z,1.00
2023-05-19T20:11:17.470Z,1.08
2023-05-19T20:13:44.361Z,1.42
2023-05-19T20:16:11.525Z,0.93
2023-05-19T20:18:39.567Z,0.98
2023-05-19T20:21:06.545Z,1.35
2023-05-19T20:23:33.443Z,1.15
2023-05-19T20:26:12.035Z,1.13
2023-05-19T20:28:40.365Z,1.98
2023-05-19T20:31:07.482Z,0.90
2023-05-19T20:33:34.593Z,0.80
2023-05-19T20:36:01.546Z,1.10
2023-05-19T20:38:28.398Z,1.17
2023-05-19T20:40:55.673Z,1.33
2023-05-19T20:43:22.546Z,1.13
2023-05-19T20:45:49.479Z,1.33
2023-05-19T20:48:16.378Z,1.35
2023-05-19T20:50:43.309Z,0.65
2023-05-19T20:53:10.151Z,1.13
2023-05-19T20:55:38.662Z,1.13
2023-05-19T20:58:05.738Z,0.60
2023-05-19T21:00:33.016Z,0.80
2023-05-19T21:03:00.402Z,1.35
2023-05-19T21:05:27.449Z,0.73
2023-05-19T21:07:54.457Z,0.90
2023-05-19T21:10:21.450Z,1.35
2023-05-19T21:12:48.523Z,1.58
2023-05-19T21:15:15.774Z,1.48
2023-05-19T21:17:42.747Z,1.40
2023-05-19T21:20:10.202Z,1.05
2023-05-19T21:22:37.133Z,1.00
2023-05-19T21:25:04.242Z,1.25
2023-05-19T21:27:32.914Z,0.93
2023-05-19T21:30:00.119Z,1.10
2023-05-19T21:32:29.656Z,1.30
2023-05-19T21:34:56.725Z,1.92
2023-05-19T21:37:23.647Z,2.15
2023-05-19T21:39:50.752Z,2.17
2023-05-19T21:42:17.706Z,1.67
2023-05-19T21:44:44.576Z,1.95
2023-05-19T21:47:11.389Z,1.55
2023-05-19T21:49:40.007Z,1.17
2023-05-19T21:52:07.880Z,2.05
2023-05-19T21:54:35.066Z,1.95
2023-05-19T21:57:02.514Z,1.20
2023-05-19T21:59:29.397Z,1.60
2023-05-19T22:01:56.276Z,2.15
2023-05-19T22:04:23.200Z,2.00
2023-05-19T22:06:50.042Z,1.50
2023-05-19T22:09:17.052Z,1.88
2023-05-19T22:11:43.967Z,1.15
2023-05-19T22:14:11.167Z,1.35
2023-05-19T22:16:38.092Z,0.93
2023-05-19T22:19:05.019Z,1.13
2023-05-19T22:21:32.075Z,1.20
2023-05-19T22:23:58.908Z,1.25
2023-05-19T22:26:26.027Z,1.63
2023-05-19T22:28:53.447Z,1.48
2023-05-19T22:31:20.675Z,1.40
2023-05-19T22:33:47.599Z,1.40
2023-05-19T22:36:16.247Z,1.50
2023-05-19T22:38:43.190Z,1.40
2023-05-19T22:41:10.096Z,1.40
2023-05-19T22:43:37.146Z,1.00
2023-05-19T22:46:04.246Z,1.17
2023-05-19T22:48:31.630Z,1.92
2023-05-19T22:50:58.591Z,1.80
2023-05-19T22:53:25.503Z,1.20
2023-05-19T22:55:52.407Z,1.20
2023-05-19T22:58:19.348Z,1.42
2023-05-19T23:00:46.380Z,1.30
2023-05-19T23:03:13.335Z,1.80
2023-05-19T23:05:40.558Z,2.13
2023-05-19T23:08:07.407Z,1.23
2023-05-19T23:10:34.305Z,1.45
2023-05-19T23:13:01.184Z,1.23
2023-05-19T23:15:28.035Z,1.83
2023-05-19T23:17:54.895Z,1.67
2023-05-19T23:20:21.895Z,2.17
2023-05-19T23:22:48.750Z,1.50
2023-05-19T23:25:15.581Z,1.50
2023-05-19T23:27:42.511Z,1.08
2023-05-19T23:30:09.582Z,1.40
2023-05-19T23:32:36.484Z,1.85
2023-05-19T23:35:29.683Z,2.00
2023-05-19T23:37:56.569Z,2.00
2023-05-19T23:40:23.403Z,1.98
2023-05-19T23:42:50.277Z,3.15
2023-05-19T23:45:17.222Z,1.80
2023-05-19T23:47:44.078Z,2.13
2023-05-19T23:50:11.368Z,1.80
2023-05-19T23:52:38.223Z,2.70
2023-05-19T23:55:05.899Z,2.47
2023-05-19T23:57:32.736Z,2.05
